sensor_id;sensor_type;location;lat;lon;timestamp;P1;durP1;ratioP1;P2;durP2;ratioP2
19456;SDS011;9867;48.094;11.478;2023-05-10T00:01:50;1.50;;;1.40;;
19456;SDS011;9867;48.094;11.478;2023-05-10T00:04:18;1.67;;;1.40;;
19456;SDS011;9867;48.094;11.478;2023-05-10T00:06:46;2.90;;;1.80;;
19456;SDS011;9867;48.094;11.478;2023-05-10T00:09:14;1.80;;;1.40;;
19456;SDS011;9867;48.094;11.478;2023-05-10T00:11:42;1.87;;;1.50;;
19456;SDS011;9867;48.094;11.478;2023-05-10T00:14:10;1.17;;;1.13;;
19456;SDS011;9867;48.094;11.478;2023-05-10T00:16:38;1.50;;;1.40;;
19456;SDS011;9867;48.094;11.478;2023-05-10T00:19:08;1.30;;;1.30;;
19456;SDS011;9867;48.094;11.478;2023-05-10T00:21:36;1.67;;;1.57;;
19456;SDS011;9867;48.094;11.478;2023-05-10T00:24:04;1.93;;;1.60;;
19456;SDS011;9867;48.094;11.478;2023-05-10T00:26:32;0.97;;;0.97;;
19456;SDS011;9867;48.094;11.478;2023-05-10T00:29:00;2.30;;;1.57;;
19456;SDS011;9867;48.094;11.478;2023-05-10T00:31:28;1.37;;;1.03;;
19456;SDS011;9867;48.094;11.478;2023-05-10T00:33:56;1.30;;;1.20;;
19456;SDS011;9867;48.094;11.478;2023-05-10T00:36:25;1.50;;;1.37;;
19456;SDS011;9867;48.094;11.478;2023-05-10T00:38:53;1.40;;;1.40;;
19456;SDS011;9867;48.094;11.478;2023-05-10T00:41:22;1.50;;;1.40;;
19456;SDS011;9867;48.094;11.478;2023-05-10T00:43:50;1.47;;;1.33;;
19456;SDS011;9867;48.094;11.478;2023-05-10T00:46:18;1.20;;;1.20;;
19456;SDS011;9867;48.094;11.478;2023-05-10T00:48:46;1.20;;;1.20;;
19456;SDS011;9867;48.094;11.478;2023-05-10T00:51:14;1.77;;;0.90;;
19456;SDS011;9867;48.094;11.478;2023-05-10T00:53:44;1.20;;;1.10;;
19456;SDS011;9867;48.094;11.478;2023-05-10T00:56:13;0.80;;;0.80;;
19456;SDS011;9867;48.094;11.478;2023-05-10T00:58:41;0.97;;;0.97;;
19456;SDS011;9867;48.094;11.478;2023-05-10T01:01:09;1.00;;;1.00;;
19456;SDS011;9867;48.094;11.478;2023-05-10T01:03:38;1.00;;;1.00;;
19456;SDS011;9867;48.094;11.478;2023-05-10T01:06:07;1.00;;;1.00;;
19456;SDS011;9867;48.094;11.478;2023-05-10T01:08:36;1.00;;;1.00;;
19456;SDS011;9867;48.094;11.478;2023-05-10T01:11:05;0.90;;;0.90;;
19456;SDS011;9867;48.094;11.478;2023-05-10T01:13:36;0.93;;;0.93;;
19456;SDS011;9867;48.094;11.478;2023-05-10T01:16:06;1.23;;;0.80;;
19456;SDS011;9867;48.094;11.478;2023-05-10T01:18:35;0.90;;;0.90;;
19456;SDS011;9867;48.094;11.478;2023-05-10T01:21:09;1.00;;;1.00;;
19456;SDS011;9867;48.094;11.478;2023-05-10T01:23:57;2.03;;;0.90;;
19456;SDS011;9867;48.094;11.478;2023-05-10T01:26:56;1.20;;;1.07;;
19456;SDS011;9867;48.094;11.478;2023-05-10T01:29:53;0.97;;;0.97;;
19456;SDS011;9867;48.094;11.478;2023-05-10T01:32:51;0.77;;;0.73;;
19456;SDS011;9867;48.094;11.478;2023-05-10T01:35:26;0.93;;;0.93;;
19456;SDS011;9867;48.094;11.478;2023-05-10T01:38:04;0.90;;;0.90;;
19456;SDS011;9867;48.094;11.478;2023-05-10T01:40:39;0.87;;;0.87;;
19456;SDS011;9867;48.094;11.478;2023-05-10T01:43:15;0.90;;;0.90;;
19456;SDS011;9867;48.094;11.478;2023-05-10T01:45:54;1.70;;;1.00;;
19456;SDS011;9867;48.094;11.478;2023-05-10T01:48:32;0.80;;;0.80;;
19456;SDS011;9867;48.094;11.478;2023-05-10T01:51:00;1.00;;;0.83;;
19456;SDS011;9867;48.094;11.478;2023-05-10T01:53:29;1.20;;;1.10;;
19456;SDS011;9867;48.094;11.478;2023-05-10T01:55:59;1.60;;;0.90;;
19456;SDS011;9867;48.094;11.478;2023-05-10T01:58:30;1.27;;;0.90;;
19456;SDS011;9867;48.094;11.478;2023-05-10T02:01:00;1.23;;;0.90;;
19456;SDS011;9867;48.094;11.478;2023-05-10T02:03:32;1.63;;;1.10;;
19456;SDS011;9867;48.094;11.478;2023-05-10T02:06:03;0.90;;;0.90;;
19456;SDS011;9867;48.094;11.478;2023-05-10T02:08:33;1.13;;;1.03;;
19456;SDS011;9867;48.094;11.478;2023-05-10T02:11:03;1.10;;;1.10;;
19456;SDS011;9867;48.094;11.478;2023-05-10T02:13:32;1.07;;;1.07;;
19456;SDS011;9867;48.094;11.478;2023-05-10T02:16:02;0.90;;;0.90;;
19456;SDS011;9867;48.094;11.478;2023-05-10T02:18:33;1.00;;;1.00;;
19456;SDS011;9867;48.094;11.478;2023-05-10T02:21:03;0.93;;;0.93;;
19456;SDS011;9867;48.094;11.478;2023-05-10T02:23:31;0.73;;;0.73;;
19456;SDS011;9867;48.094;11.478;2023-05-10T02:26:01;1.70;;;0.90;;
19456;SDS011;9867;48.094;11.478;2023-05-10T02:28:30;1.20;;;1.13;;
19456;SDS011;9867;48.094;11.478;2023-05-10T02:31:00;1.13;;;1.03;;
19456;SDS011;9867;48.094;11.478;2023-05-10T02:33:28;0.97;;;0.97;;
19456;SDS011;9867;48.094;11.478;2023-05-10T02:36:00;1.13;;;1.00;;
19456;SDS011;9867;48.094;11.478;2023-05-10T02:38:29;1.87;;;1.73;;
19456;SDS011;9867;48.094;11.478;2023-05-10T02:40:59;0.90;;;0.90;;
19456;SDS011;9867;48.094;11.478;2023-05-10T02:43:29;1.47;;;0.87;;
19456;SDS011;9867;48.094;11.478;2023-05-10T02:45:59;2.53;;;1.07;;
19456;SDS011;9867;48.094;11.478;2023-05-10T02:48:27;2.33;;;1.00;;
19456;SDS011;9867;48.094;11.478;2023-05-10T02:50:56;0.80;;;0.80;;
19456;SDS011;9867;48.094;11.478;2023-05-10T02:53:35;1.00;;;1.00;;
19456;SDS011;9867;48.094;11.478;2023-05-10T02:56:08;1.80;;;1.10;;
19456;SDS011;9867;48.094;11.478;2023-05-10T02:58:41;1.10;;;1.00;;
19456;SDS011;9867;48.094;11.478;2023-05-10T03:01:09;0.90;;;0.83;;
19456;SDS011;9867;48.094;11.478;2023-05-10T03:03:37;0.80;;;0.70;;
19456;SDS011;9867;48.094;11.478;2023-05-10T03:06:07;0.60;;;0.60;;
19456;SDS011;9867;48.094;11.478;2023-05-10T03:08:35;1.07;;;0.97;;
19456;SDS011;9867;48.094;11.478;2023-05-10T03:11:10;0.70;;;0.70;;
19456;SDS011;9867;48.094;11.478;2023-05-10T03:13:49;2.40;;;2.20;;
19456;SDS011;9867;48.094;11.478;2023-05-10T03:16:24;3.07;;;2.87;;
19456;SDS011;9867;48.094;11.478;2023-05-10T03:19:00;2.40;;;2.20;;
19456;SDS011;9867;48.094;11.478;2023-05-10T03:21:34;2.93;;;1.47;;
19456;SDS011;9867;48.094;11.478;2023-05-10T03:24:08;2.10;;;1.30;;
19456;SDS011;9867;48.094;11.478;2023-05-10T03:26:43;1.43;;;1.10;;
19456;SDS011;9867;48.094;11.478;2023-05-10T03:29:15;0.60;;;0.60;;
19456;SDS011;9867;48.094;11.478;2023-05-10T03:31:44;2.67;;;0.90;;
19456;SDS011;9867;48.094;11.478;2023-05-10T03:34:13;1.17;;;1.10;;
19456;SDS011;9867;48.094;11.478;2023-05-10T03:36:43;1.57;;;1.47;;
19456;SDS011;9867;48.094;11.478;2023-05-10T03:39:11;1.00;;;1.00;;
19456;SDS011;9867;48.094;11.478;2023-05-10T03:41:39;1.50;;;0.70;;
19456;SDS011;9867;48.094;11.478;2023-05-10T03:44:07;1.20;;;1.10;;
19456;SDS011;9867;48.094;11.478;2023-05-10T03:46:35;1.30;;;1.10;;
19456;SDS011;9867;48.094;11.478;2023-05-10T03:49:03;1.47;;;1.37;;
19456;SDS011;9867;48.094;11.478;2023-05-10T03:51:31;2.33;;;2.17;;
19456;SDS011;9867;48.094;11.478;2023-05-10T03:54:01;1.10;;;1.10;;
19456;SDS011;9867;48.094;11.478;2023-05-10T03:56:29;2.20;;;0.70;;
19456;SDS011;9867;48.094;11.478;2023-05-10T03:58:57;3.53;;;1.50;;
19456;SDS011;9867;48.094;11.478;2023-05-10T04:01:25;3.80;;;1.53;;
19456;SDS011;9867;48.094;11.478;2023-05-10T04:03:52;0.50;;;0.50;;
19456;SDS011;9867;48.094;11.478;2023-05-10T04:06:20;0.57;;;0.50;;
19456;SDS011;9867;48.094;11.478;2023-05-10T04:08:49;1.03;;;0.80;;
19456;SDS011;9867;48.094;11.478;2023-05-10T04:11:19;0.60;;;0.60;;
19456;SDS011;9867;48.094;11.478;2023-05-10T04:13:48;0.70;;;0.70;;
19456;SDS011;9867;48.094;11.478;2023-05-10T04:16:16;1.50;;;0.80;;
19456;SDS011;9867;48.094;11.478;2023-05-10T04:18:43;0.53;;;0.53;;
19456;SDS011;9867;48.094;11.478;2023-05-10T04:21:12;0.63;;;0.63;;
19456;SDS011;9867;48.094;11.478;2023-05-10T04:23:40;0.90;;;0.90;;
19456;SDS011;9867;48.094;11.478;2023-05-10T04:26:08;0.60;;;0.60;;
19456;SDS011;9867;48.094;11.478;2023-05-10T04:28:37;0.97;;;0.80;;
19456;SDS011;9867;48.094;11.478;2023-05-10T04:31:06;0.60;;;0.60;;
19456;SDS011;9867;48.094;11.478;2023-05-10T04:33:36;0.80;;;0.80;;
19456;SDS011;9867;48.094;11.478;2023-05-10T04:36:04;1.97;;;0.77;;
19456;SDS011;9867;48.094;11.478;2023-05-10T04:38:32;1.30;;;0.83;;
19456;SDS011;9867;48.094;11.478;2023-05-10T04:41:03;0.87;;;0.67;;
19456;SDS011;9867;48.094;11.478;2023-05-10T04:43:32;0.90;;;0.90;;
19456;SDS011;9867;48.094;11.478;2023-05-10T04:46:02;1.60;;;0.77;;
19456;SDS011;9867;48.094;11.478;2023-05-10T04:48:30;0.70;;;0.67;;
19456;SDS011;9867;48.094;11.478;2023-05-10T04:50:58;0.77;;;0.60;;
19456;SDS011;9867;48.094;11.478;2023-05-10T04:53:25;0.80;;;0.80;;
19456;SDS011;9867;48.094;11.478;2023-05-10T04:55:53;0.80;;;0.80;;
19456;SDS011;9867;48.094;11.478;2023-05-10T04:58:21;1.73;;;0.67;;
19456;SDS011;9867;48.094;11.478;2023-05-10T05:00:49;2.10;;;1.53;;
19456;SDS011;9867;48.094;11.478;2023-05-10T05:03:18;3.93;;;3.63;;
19456;SDS011;9867;48.094;11.478;2023-05-10T05:05:46;1.00;;;0.83;;
19456;SDS011;9867;48.094;11.478;2023-05-10T05:08:14;2.67;;;2.47;;
19456;SDS011;9867;48.094;11.478;2023-05-10T05:10:42;1.50;;;1.20;;
19456;SDS011;9867;48.094;11.478;2023-05-10T05:13:10;3.53;;;1.10;;
19456;SDS011;9867;48.094;11.478;2023-05-10T05:15:40;0.93;;;0.90;;
19456;SDS011;9867;48.094;11.478;2023-05-10T05:18:07;1.90;;;1.10;;
19456;SDS011;9867;48.094;11.478;2023-05-10T05:20:37;1.80;;;1.33;;
19456;SDS011;9867;48.094;11.478;2023-05-10T05:23:05;6.33;;;1.77;;
19456;SDS011;9867;48.094;11.478;2023-05-10T05:25:32;5.17;;;1.90;;
19456;SDS011;9867;48.094;11.478;2023-05-10T05:28:00;4.50;;;1.77;;
19456;SDS011;9867;48.094;11.478;2023-05-10T05:30:28;1.33;;;1.10;;
19456;SDS011;9867;48.094;11.478;2023-05-10T05:32:58;0.93;;;0.90;;
19456;SDS011;9867;48.094;11.478;2023-05-10T05:35:26;0.80;;;0.80;;
19456;SDS011;9867;48.094;11.478;2023-05-10T05:37:55;1.37;;;0.93;;
19456;SDS011;9867;48.094;11.478;2023-05-10T05:40:23;1.00;;;0.90;;
19456;SDS011;9867;48.094;11.478;2023-05-10T05:42:51;3.27;;;1.10;;
19456;SDS011;9867;48.094;11.478;2023-05-10T05:45:19;4.27;;;1.13;;
19456;SDS011;9867;48.094;11.478;2023-05-10T05:47:48;1.30;;;1.20;;
19456;SDS011;9867;48.094;11.478;2023-05-10T05:50:15;0.90;;;0.90;;
19456;SDS011;9867;48.094;11.478;2023-05-10T05:52:44;1.63;;;1.10;;
19456;SDS011;9867;48.094;11.478;2023-05-10T05:55:14;1.50;;;1.40;;
19456;SDS011;9867;48.094;11.478;2023-05-10T05:57:42;1.47;;;1.20;;
19456;SDS011;9867;48.094;11.478;2023-05-10T06:00:10;1.63;;;1.20;;
19456;SDS011;9867;48.094;11.478;2023-05-10T06:02:39;1.33;;;1.23;;
19456;SDS011;9867;48.094;11.478;2023-05-10T06:05:07;1.20;;;1.07;;
19456;SDS011;9867;48.094;11.478;2023-05-10T06:07:35;1.60;;;1.00;;
19456;SDS011;9867;48.094;11.478;2023-05-10T06:10:04;1.20;;;1.10;;
19456;SDS011;9867;48.094;11.478;2023-05-10T06:12:34;1.13;;;0.97;;
19456;SDS011;9867;48.094;11.478;2023-05-10T06:15:02;1.20;;;1.10;;
19456;SDS011;9867;48.094;11.478;2023-05-10T06:17:31;2.10;;;0.87;;
19456;SDS011;9867;48.094;11.478;2023-05-10T06:19:59;1.97;;;1.10;;
19456;SDS011;9867;48.094;11.478;2023-05-10T06:22:27;1.47;;;1.10;;
19456;SDS011;9867;48.094;11.478;2023-05-10T06:24:54;1.97;;;1.00;;
19456;SDS011;9867;48.094;11.478;2023-05-10T06:27:22;1.57;;;1.33;;
19456;SDS011;9867;48.094;11.478;2023-05-10T06:29:52;0.80;;;0.80;;
19456;SDS011;9867;48.094;11.478;2023-05-10T06:32:31;1.57;;;1.20;;
19456;SDS011;9867;48.094;11.478;2023-05-10T06:34:59;1.50;;;1.40;;
19456;SDS011;9867;48.094;11.478;2023-05-10T06:37:26;1.33;;;0.83;;
19456;SDS011;9867;48.094;11.478;2023-05-10T06:39:54;3.93;;;1.30;;
19456;SDS011;9867;48.094;11.478;2023-05-10T06:42:22;0.93;;;0.87;;
19456;SDS011;9867;48.094;11.478;2023-05-10T06:44:53;1.00;;;1.00;;
19456;SDS011;9867;48.094;11.478;2023-05-10T06:47:20;1.73;;;1.07;;
19456;SDS011;9867;48.094;11.478;2023-05-10T06:49:48;2.43;;;1.13;;
19456;SDS011;9867;48.094;11.478;2023-05-10T06:52:19;2.37;;;1.30;;
19456;SDS011;9867;48.094;11.478;2023-05-10T06:54:48;1.70;;;1.10;;
19456;SDS011;9867;48.094;11.478;2023-05-10T06:57:16;1.53;;;1.30;;
19456;SDS011;9867;48.094;11.478;2023-05-10T06:59:58;2.33;;;0.80;;
19456;SDS011;9867;48.094;11.478;2023-05-10T07:02:28;1.33;;;1.23;;
19456;SDS011;9867;48.094;11.478;2023-05-10T07:04:56;1.20;;;1.10;;
19456;SDS011;9867;48.094;11.478;2023-05-10T07:07:31;1.30;;;1.20;;
19456;SDS011;9867;48.094;11.478;2023-05-10T07:09:59;2.10;;;0.83;;
19456;SDS011;9867;48.094;11.478;2023-05-10T07:12:27;1.87;;;1.00;;
19456;SDS011;9867;48.094;11.478;2023-05-10T07:14:55;2.00;;;0.90;;
19456;SDS011;9867;48.094;11.478;2023-05-10T07:17:24;1.70;;;1.13;;
19456;SDS011;9867;48.094;11.478;2023-05-10T07:19:52;1.23;;;1.13;;
19456;SDS011;9867;48.094;11.478;2023-05-10T07:22:20;1.10;;;1.10;;
19456;SDS011;9867;48.094;11.478;2023-05-10T07:24:48;1.20;;;1.10;;
19456;SDS011;9867;48.094;11.478;2023-05-10T07:27:16;2.13;;;1.20;;
19456;SDS011;9867;48.094;11.478;2023-05-10T07:29:44;1.90;;;1.13;;
19456;SDS011;9867;48.094;11.478;2023-05-10T07:32:11;3.10;;;1.00;;
19456;SDS011;9867;48.094;11.478;2023-05-10T07:34:41;1.63;;;1.20;;
19456;SDS011;9867;48.094;11.478;2023-05-10T07:37:09;2.03;;;0.93;;
19456;SDS011;9867;48.094;11.478;2023-05-10T07:39:36;1.10;;;1.10;;
19456;SDS011;9867;48.094;11.478;2023-05-10T07:42:05;2.47;;;0.97;;
19456;SDS011;9867;48.094;11.478;2023-05-10T07:44:33;1.00;;;0.93;;
19456;SDS011;9867;48.094;11.478;2023-05-10T07:47:01;1.27;;;1.17;;
19456;SDS011;9867;48.094;11.478;2023-05-10T07:49:29;2.70;;;1.13;;
19456;SDS011;9867;48.094;11.478;2023-05-10T07:51:58;1.03;;;0.80;;
19456;SDS011;9867;48.094;11.478;2023-05-10T07:54:26;1.43;;;0.80;;
19456;SDS011;9867;48.094;11.478;2023-05-10T07:56:54;1.00;;;1.00;;
19456;SDS011;9867;48.094;11.478;2023-05-10T07:59:22;2.33;;;0.97;;
19456;SDS011;9867;48.094;11.478;2023-05-10T08:01:50;0.73;;;0.73;;
19456;SDS011;9867;48.094;11.478;2023-05-10T08:04:18;1.63;;;0.80;;
19456;SDS011;9867;48.094;11.478;2023-05-10T08:06:46;4.27;;;0.80;;
19456;SDS011;9867;48.094;11.478;2023-05-10T08:09:16;0.90;;;0.90;;
19456;SDS011;9867;48.094;11.478;2023-05-10T08:11:50;0.90;;;0.90;;
19456;SDS011;9867;48.094;11.478;2023-05-10T08:14:18;1.07;;;0.97;;
19456;SDS011;9867;48.094;11.478;2023-05-10T08:16:46;0.87;;;0.70;;
19456;SDS011;9867;48.094;11.478;2023-05-10T08:19:14;3.10;;;1.10;;
19456;SDS011;9867;48.094;11.478;2023-05-10T08:21:45;3.43;;;0.80;;
19456;SDS011;9867;48.094;11.478;2023-05-10T08:24:13;1.10;;;1.00;;
19456;SDS011;9867;48.094;11.478;2023-05-10T08:26:42;0.97;;;0.73;;
19456;SDS011;9867;48.094;11.478;2023-05-10T08:29:10;1.33;;;1.00;;
19456;SDS011;9867;48.094;11.478;2023-05-10T08:31:38;1.27;;;0.70;;
19456;SDS011;9867;48.094;11.478;2023-05-10T08:34:06;0.60;;;0.60;;
19456;SDS011;9867;48.094;11.478;2023-05-10T08:36:33;1.03;;;0.80;;
19456;SDS011;9867;48.094;11.478;2023-05-10T08:39:02;0.77;;;0.77;;
19456;SDS011;9867;48.094;11.478;2023-05-10T08:41:36;0.60;;;0.60;;
19456;SDS011;9867;48.094;11.478;2023-05-10T08:44:08;0.87;;;0.77;;
19456;SDS011;9867;48.094;11.478;2023-05-10T08:46:36;1.90;;;0.57;;
19456;SDS011;9867;48.094;11.478;2023-05-10T08:49:08;0.60;;;0.60;;
19456;SDS011;9867;48.094;11.478;2023-05-10T08:51:40;2.17;;;0.90;;
19456;SDS011;9867;48.094;11.478;2023-05-10T08:54:13;0.70;;;0.50;;
19456;SDS011;9867;48.094;11.478;2023-05-10T08:56:42;0.80;;;0.80;;
19456;SDS011;9867;48.094;11.478;2023-05-10T08:59:11;1.50;;;0.97;;
19456;SDS011;9867;48.094;11.478;2023-05-10T09:01:40;1.00;;;0.43;;
19456;SDS011;9867;48.094;11.478;2023-05-10T09:04:12;0.40;;;0.40;;
19456;SDS011;9867;48.094;11.478;2023-05-10T09:06:40;0.70;;;0.70;;
19456;SDS011;9867;48.094;11.478;2023-05-10T09:09:08;0.87;;;0.80;;
19456;SDS011;9867;48.094;11.478;2023-05-10T09:11:37;1.20;;;0.80;;
19456;SDS011;9867;48.094;11.478;2023-05-10T09:14:05;1.67;;;1.00;;
19456;SDS011;9867;48.094;11.478;2023-05-10T09:16:34;2.83;;;0.90;;
19456;SDS011;9867;48.094;11.478;2023-05-10T09:19:02;0.87;;;0.87;;
19456;SDS011;9867;48.094;11.478;2023-05-10T09:21:30;1.07;;;1.00;;
19456;SDS011;9867;48.094;11.478;2023-05-10T09:24:02;2.43;;;1.40;;
19456;SDS011;9867;48.094;11.478;2023-05-10T09:26:30;1.10;;;0.93;;
19456;SDS011;9867;48.094;11.478;2023-05-10T09:28:59;0.57;;;0.57;;
19456;SDS011;9867;48.094;11.478;2023-05-10T09:34:17;1.00;;;0.80;;
19456;SDS011;9867;48.094;11.478;2023-05-10T09:36:50;0.93;;;0.60;;
19456;SDS011;9867;48.094;11.478;2023-05-10T09:39:20;1.77;;;0.60;;
19456;SDS011;9867;48.094;11.478;2023-05-10T09:41:48;1.23;;;0.60;;
19456;SDS011;9867;48.094;11.478;2023-05-10T09:44:16;1.73;;;0.83;;
19456;SDS011;9867;48.094;11.478;2023-05-10T09:46:50;2.07;;;0.63;;
19456;SDS011;9867;48.094;11.478;2023-05-10T09:49:18;2.53;;;0.67;;
19456;SDS011;9867;48.094;11.478;2023-05-10T09:51:47;1.40;;;0.77;;
19456;SDS011;9867;48.094;11.478;2023-05-10T09:54:15;1.17;;;0.77;;
19456;SDS011;9867;48.094;11.478;2023-05-10T09:56:43;6.27;;;1.00;;
19456;SDS011;9867;48.094;11.478;2023-05-10T09:59:11;1.70;;;0.80;;
19456;SDS011;9867;48.094;11.478;2023-05-10T10:01:39;2.33;;;0.90;;
19456;SDS011;9867;48.094;11.478;2023-05-10T10:04:09;1.10;;;1.00;;
19456;SDS011;9867;48.094;11.478;2023-05-10T10:06:38;1.43;;;0.83;;
19456;SDS011;9867;48.094;11.478;2023-05-10T10:09:06;1.33;;;0.80;;
19456;SDS011;9867;48.094;11.478;2023-05-10T10:11:36;1.73;;;0.80;;
19456;SDS011;9867;48.094;11.478;2023-05-10T10:14:04;0.73;;;0.70;;
19456;SDS011;9867;48.094;11.478;2023-05-10T10:16:32;2.57;;;0.80;;
19456;SDS011;9867;48.094;11.478;2023-05-10T10:19:00;0.77;;;0.70;;
19456;SDS011;9867;48.094;11.478;2023-05-10T10:21:31;0.97;;;0.60;;
19456;SDS011;9867;48.094;11.478;2023-05-10T10:24:00;1.30;;;0.50;;
19456;SDS011;9867;48.094;11.478;2023-05-10T10:26:32;0.40;;;0.40;;
19456;SDS011;9867;48.094;11.478;2023-05-10T10:29:04;1.93;;;0.50;;
19456;SDS011;9867;48.094;11.478;2023-05-10T10:31:40;1.67;;;0.57;;
19456;SDS011;9867;48.094;11.478;2023-05-10T10:34:17;2.67;;;0.70;;
19456;SDS011;9867;48.094;11.478;2023-05-10T10:36:54;2.23;;;0.80;;
19456;SDS011;9867;48.094;11.478;2023-05-10T10:39:22;2.30;;;1.03;;
19456;SDS011;9867;48.094;11.478;2023-05-10T10:41:52;0.87;;;0.70;;
19456;SDS011;9867;48.094;11.478;2023-05-10T10:44:25;1.20;;;0.70;;
19456;SDS011;9867;48.094;11.478;2023-05-10T10:50:02;2.53;;;0.80;;
19456;SDS011;9867;48.094;11.478;2023-05-10T10:52:33;3.00;;;0.90;;
19456;SDS011;9867;48.094;11.478;2023-05-10T10:55:03;1.90;;;1.37;;
19456;SDS011;9867;48.094;11.478;2023-05-10T10:57:42;6.60;;;1.70;;
19456;SDS011;9867;48.094;11.478;2023-05-10T11:00:18;3.63;;;1.43;;
19456;SDS011;9867;48.094;11.478;2023-05-10T11:02:47;2.93;;;1.53;;
19456;SDS011;9867;48.094;11.478;2023-05-10T11:08:15;3.20;;;2.00;;
19456;SDS011;9867;48.094;11.478;2023-05-10T11:11:04;2.73;;;2.17;;
19456;SDS011;9867;48.094;11.478;2023-05-10T11:13:40;5.27;;;2.10;;
19456;SDS011;9867;48.094;11.478;2023-05-10T11:16:10;2.37;;;2.00;;
19456;SDS011;9867;48.094;11.478;2023-05-10T11:18:52;4.23;;;2.00;;
19456;SDS011;9867;48.094;11.478;2023-05-10T11:21:31;2.20;;;2.00;;
19456;SDS011;9867;48.094;11.478;2023-05-10T11:24:01;3.73;;;2.30;;
19456;SDS011;9867;48.094;11.478;2023-05-10T11:26:33;2.87;;;2.00;;
19456;SDS011;9867;48.094;11.478;2023-05-10T11:29:04;3.73;;;2.00;;
19456;SDS011;9867;48.094;11.478;2023-05-10T11:31:33;7.47;;;2.70;;
19456;SDS011;9867;48.094;11.478;2023-05-10T11:34:01;6.43;;;2.60;;
19456;SDS011;9867;48.094;11.478;2023-05-10T11:36:29;7.13;;;2.50;;
19456;SDS011;9867;48.094;11.478;2023-05-10T11:39:01;5.37;;;2.13;;
19456;SDS011;9867;48.094;11.478;2023-05-10T11:41:30;4.90;;;2.30;;
19456;SDS011;9867;48.094;11.478;2023-05-10T11:43:59;1.90;;;1.80;;
19456;SDS011;9867;48.094;11.478;2023-05-10T11:46:27;3.47;;;1.97;;
19456;SDS011;9867;48.094;11.478;2023-05-10T11:48:57;1.97;;;1.83;;
19456;SDS011;9867;48.094;11.478;2023-05-10T11:51:32;2.57;;;1.77;;
19456;SDS011;9867;48.094;11.478;2023-05-10T11:54:05;2.00;;;1.90;;
19456;SDS011;9867;48.094;11.478;2023-05-10T11:56:33;1.93;;;1.73;;
19456;SDS011;9867;48.094;11.478;2023-05-10T11:59:01;3.83;;;2.00;;
19456;SDS011;9867;48.094;11.478;2023-05-10T12:01:32;3.10;;;1.90;;
19456;SDS011;9867;48.094;11.478;2023-05-10T12:04:00;4.33;;;2.10;;
19456;SDS011;9867;48.094;11.478;2023-05-10T12:06:29;3.53;;;1.90;;
19456;SDS011;9867;48.094;11.478;2023-05-10T12:09:01;2.27;;;2.07;;
19456;SDS011;9867;48.094;11.478;2023-05-10T12:11:36;2.63;;;2.37;;
19456;SDS011;9867;48.094;11.478;2023-05-10T12:14:10;2.57;;;2.10;;
19456;SDS011;9867;48.094;11.478;2023-05-10T12:16:38;2.10;;;1.90;;
19456;SDS011;9867;48.094;11.478;2023-05-10T12:19:07;2.47;;;2.10;;
19456;SDS011;9867;48.094;11.478;2023-05-10T12:21:35;3.27;;;2.10;;
19456;SDS011;9867;48.094;11.478;2023-05-10T12:24:06;3.27;;;2.80;;
19456;SDS011;9867;48.094;11.478;2023-05-10T12:26:35;2.93;;;2.67;;
19456;SDS011;9867;48.094;11.478;2023-05-10T12:29:13;3.30;;;1.90;;
19456;SDS011;9867;48.094;11.478;2023-05-10T12:31:51;2.40;;;2.00;;
19456;SDS011;9867;48.094;11.478;2023-05-10T12:34:25;2.73;;;2.30;;
19456;SDS011;9867;48.094;11.478;2023-05-10T12:36:53;2.50;;;2.30;;
19456;SDS011;9867;48.094;11.478;2023-05-10T12:39:26;2.50;;;2.30;;
19456;SDS011;9867;48.094;11.478;2023-05-10T12:42:04;2.03;;;1.93;;
19456;SDS011;9867;48.094;11.478;2023-05-10T12:44:32;3.27;;;2.20;;
19456;SDS011;9867;48.094;11.478;2023-05-10T12:47:00;4.70;;;2.20;;
19456;SDS011;9867;48.094;11.478;2023-05-10T12:49:28;2.20;;;2.00;;
19456;SDS011;9867;48.094;11.478;2023-05-10T12:51:56;4.37;;;2.33;;
19456;SDS011;9867;48.094;11.478;2023-05-10T12:54:24;3.67;;;2.20;;
19456;SDS011;9867;48.094;11.478;2023-05-10T12:56:54;3.27;;;2.60;;
19456;SDS011;9867;48.094;11.478;2023-05-10T12:59:21;4.30;;;2.17;;
19456;SDS011;9867;48.094;11.478;2023-05-10T13:01:49;2.77;;;2.03;;
19456;SDS011;9867;48.094;11.478;2023-05-10T13:04:17;3.17;;;2.10;;
19456;SDS011;9867;48.094;11.478;2023-05-10T13:06:45;2.13;;;2.00;;
19456;SDS011;9867;48.094;11.478;2023-05-10T13:09:13;2.07;;;1.87;;
19456;SDS011;9867;48.094;11.478;2023-05-10T13:11:43;2.53;;;1.67;;
19456;SDS011;9867;48.094;11.478;2023-05-10T13:14:11;4.03;;;2.23;;
19456;SDS011;9867;48.094;11.478;2023-05-10T13:16:39;2.70;;;2.30;;
19456;SDS011;9867;48.094;11.478;2023-05-10T13:19:07;3.83;;;2.07;;
19456;SDS011;9867;48.094;11.478;2023-05-10T13:21:35;1.90;;;1.70;;
19456;SDS011;9867;48.094;11.478;2023-05-10T13:24:03;2.03;;;1.80;;
19456;SDS011;9867;48.094;11.478;2023-05-10T13:26:32;2.97;;;1.87;;
19456;SDS011;9867;48.094;11.478;2023-05-10T13:29:01;3.23;;;1.57;;
19456;SDS011;9867;48.094;11.478;2023-05-10T13:31:29;2.43;;;1.80;;
19456;SDS011;9867;48.094;11.478;2023-05-10T13:33:57;2.13;;;1.77;;
19456;SDS011;9867;48.094;11.478;2023-05-10T13:36:25;1.80;;;1.63;;
19456;SDS011;9867;48.094;11.478;2023-05-10T13:38:53;2.30;;;1.80;;
19456;SDS011;9867;48.094;11.478;2023-05-10T13:41:21;1.80;;;1.70;;
19456;SDS011;9867;48.094;11.478;2023-05-10T13:43:49;1.80;;;1.70;;
19456;SDS011;9867;48.094;11.478;2023-05-10T13:46:18;1.97;;;1.80;;
19456;SDS011;9867;48.094;11.478;2023-05-10T13:48:46;1.60;;;1.50;;
19456;SDS011;9867;48.094;11.478;2023-05-10T13:51:14;1.70;;;1.60;;
19456;SDS011;9867;48.094;11.478;2023-05-10T13:53:42;1.83;;;1.60;;
19456;SDS011;9867;48.094;11.478;2023-05-10T13:56:10;2.03;;;1.53;;
19456;SDS011;9867;48.094;11.478;2023-05-10T13:58:38;1.90;;;1.60;;
19456;SDS011;9867;48.094;11.478;2023-05-10T14:01:06;2.03;;;1.83;;
19456;SDS011;9867;48.094;11.478;2023-05-10T14:03:35;1.80;;;1.70;;
19456;SDS011;9867;48.094;11.478;2023-05-10T14:06:03;1.50;;;1.40;;
19456;SDS011;9867;48.094;11.478;2023-05-10T14:08:31;3.30;;;1.70;;
19456;SDS011;9867;48.094;11.478;2023-05-10T14:10:59;2.27;;;1.70;;
19456;SDS011;9867;48.094;11.478;2023-05-10T14:13:27;3.10;;;1.60;;
19456;SDS011;9867;48.094;11.478;2023-05-10T14:15:55;2.50;;;1.63;;
19456;SDS011;9867;48.094;11.478;2023-05-10T14:18:23;1.60;;;1.50;;
19456;SDS011;9867;48.094;11.478;2023-05-10T14:20:52;2.30;;;1.60;;
19456;SDS011;9867;48.094;11.478;2023-05-10T14:23:21;2.93;;;1.50;;
19456;SDS011;9867;48.094;11.478;2023-05-10T14:25:51;1.53;;;1.43;;
19456;SDS011;9867;48.094;11.478;2023-05-10T14:28:19;1.50;;;1.40;;
19456;SDS011;9867;48.094;11.478;2023-05-10T14:30:47;1.55;;;1.45;;
19456;SDS011;9867;48.094;11.478;2023-05-10T14:33:16;1.40;;;1.30;;
19456;SDS011;9867;48.094;11.478;2023-05-10T14:35:44;1.23;;;1.23;;
19456;SDS011;9867;48.094;11.478;2023-05-10T14:38:14;1.47;;;1.33;;
19456;SDS011;9867;48.094;11.478;2023-05-10T14:40:42;1.37;;;1.27;;
19456;SDS011;9867;48.094;11.478;2023-05-10T14:43:10;2.50;;;1.40;;
19456;SDS011;9867;48.094;11.478;2023-05-10T14:45:38;1.40;;;1.30;;
19456;SDS011;9867;48.094;11.478;2023-05-10T14:48:06;2.17;;;1.40;;
19456;SDS011;9867;48.094;11.478;2023-05-10T14:50:37;2.50;;;1.47;;
19456;SDS011;9867;48.094;11.478;2023-05-10T14:53:06;1.70;;;1.60;;
19456;SDS011;9867;48.094;11.478;2023-05-10T14:55:35;1.80;;;1.70;;
19456;SDS011;9867;48.094;11.478;2023-05-10T14:58:04;2.27;;;1.70;;
19456;SDS011;9867;48.094;11.478;2023-05-10T15:00:32;1.80;;;1.70;;
19456;SDS011;9867;48.094;11.478;2023-05-10T15:03:01;1.30;;;1.30;;
19456;SDS011;9867;48.094;11.478;2023-05-10T15:05:30;1.60;;;1.50;;
19456;SDS011;9867;48.094;11.478;2023-05-10T15:07:58;2.20;;;2.00;;
19456;SDS011;9867;48.094;11.478;2023-05-10T15:10:26;3.53;;;2.10;;
19456;SDS011;9867;48.094;11.478;2023-05-10T15:12:55;2.20;;;2.00;;